KEUG/EUG METAR and TAF weather

Enter ICAO airport designator
Station Type Date Time Source
KEUG METAR 2019/10/23 20:25 UTC NOAA

KEUG 232025Z 03007KT 10SM SCT010 BKN200 13/09 A3043 RMK AO2 T01280089


Station Type Date Time Source
KEUG Decoded METAR 2019/10/23 20:25 UTC NOAA

MAHLON SWEET FIELD, OR, United States (KEUG) 44-08N 123-13W 114M
Oct 23, 2019 - 04:25 PM EDT / 2019.10.23 2025 UTC
Wind: from the NNE (030 degrees) at 8 MPH (7 KT):0
Visibility: 10 mile(s):0
Sky conditions: mostly cloudy
Temperature: 55.0 F (12.8 C)
Dew Point: 48.0 F (8.9 C)
Relative Humidity: 77%
Pressure (altimeter): 30.43 in. Hg (1030 hPa)
ob: KEUG 232025Z 03007KT 10SM SCT010 BKN200 13/09 A3043 RMK AO2 T01280089
cycle: 20

Station Type Date Time Source
KEUG TAF 2019/10/23 20:30 UTC NOAA

TAF
AMD KEUG 232029Z 2320/2418 03006KT P6SM SCT010
FM240000 36011KT P6SM SKC
FM240400 01004KT P6SM SCT060
FM241000 36003KT 4SM BR BKN015

Example: see airport list